Terminal Aerodrome Forecast
Issued by NWS Cleveland, OH

Home | Current Version | Previous Version | Text Only | Print | Product List | Glossary On
Versions: 1 2 3 4 5 6 7 8 9 10 11 12 13 14 15 16 17 18 19 20 21 22 23 24 25 26
869
FTUS41 KCLE 201720
TAFCLE
TAF
KCLE 201720Z 2018/2124 21018G27KT P6SM VCSH BKN050
     FM202100 20017G25KT P6SM BKN070
     FM211000 21016G25KT 6SM SHRA OVC035
     FM211400 27013KT 4SM SHRA OVC007
     FM211900 31010KT P6SM -SHRA BKN030=

USA.gov is the U.S. government's official web portal to all federal, state and local government web resources and services.